Time;durP1;ratioP1;P1;durP2;ratioP2;P2;SDS_P1;SDS_P2;PMS_P1;PMS_P2;Temp;Humidity;BMP_temperature;BMP_pressure;BME280_temperature;BME280_humidity;BME280_pressure;Samples;Min_cycle;Max_cycle;Signal;HPM_P1;HPM_P2
2022/03/07 00:04:48;;;;;;;11.90;7.50;;;23.20;46.30;;;;;;220353;1268;23360;-55
2022/03/07 00:09:53;;;;;;;11.20;6.60;;;23.00;46.50;;;;;;220138;1268;22634;-50
2022/03/07 00:14:57;;;;;;;11.10;6.40;;;22.90;46.70;;;;;;220832;1265;23058;-51
2022/03/07 00:20:01;;;;;;;12.90;7.30;;;22.90;46.70;;;;;;220403;1269;24262;-54
2022/03/07 00:25:05;;;;;;;10.40;6.50;;;22.80;46.80;;;;;;220165;1268;22551;-52
2022/03/07 00:30:15;;;;;;;14.20;7.10;;;22.70;46.90;;;;;;220685;1268;22548;-55
2022/03/07 00:35:20;;;;;;;10.70;6.80;;;22.60;47.40;;;;;;220247;1268;22628;-51
2022/03/07 00:40:26;;;;;;;8.70;6.40;;;22.50;47.50;;;;;;220318;1268;22550;-53
2022/03/07 00:45:34;;;;;;;11.40;6.40;;;22.50;47.20;;;;;;220378;1268;25361;-54
2022/03/07 00:50:42;;;;;;;10.90;6.30;;;22.40;47.50;;;;;;220722;1265;23115;-54
2022/03/07 00:55:47;;;;;;;10.40;6.50;;;22.30;47.40;;;;;;220395;1268;22697;-52
2022/03/07 01:00:51;;;;;;;12.10;6.90;;;22.20;47.40;;;;;;220293;1265;25254;-54
2022/03/07 01:05:55;;;;;;;9.80;6.80;;;22.40;47.50;;;;;;220427;1268;26486;-51
2022/03/07 01:10:59;;;;;;;10.20;5.80;;;22.80;46.60;;;;;;220538;1268;22729;-53
2022/03/07 01:16:03;;;;;;;8.80;6.10;;;23.00;45.90;;;;;;220262;1268;22528;-52
2022/03/07 01:21:07;;;;;;;11.70;6.90;;;23.30;45.30;;;;;;220852;1268;22577;-54
2022/03/07 01:26:11;;;;;;;9.30;6.30;;;23.40;45.20;;;;;;220804;1265;24311;-53
2022/03/07 01:31:15;;;;;;;11.00;6.80;;;23.60;44.90;;;;;;220375;1268;24429;-55
2022/03/07 01:36:19;;;;;;;8.70;5.90;;;23.60;44.80;;;;;;220448;1267;24267;-55
2022/03/07 01:41:23;;;;;;;10.60;6.60;;;23.70;44.50;;;;;;220493;1267;23213;-55
2022/03/07 01:46:28;;;;;;;10.10;6.20;;;23.80;44.40;;;;;;220396;1268;22532;-54
2022/03/07 01:51:32;;;;;;;8.90;6.20;;;23.80;44.30;;;;;;220505;1265;22709;-51
2022/03/07 01:56:46;;;;;;;9.70;5.90;;;23.80;44.20;;;;;;220584;1267;22609;-55
2022/03/07 02:01:55;;;;;;;8.80;5.90;;;23.80;44.00;;;;;;220802;1267;23028;-51
2022/03/07 02:07:00;;;;;;;10.00;6.10;;;23.80;43.90;;;;;;220820;1267;22776;-56
2022/03/07 02:12:04;;;;;;;9.40;5.90;;;23.90;44.30;;;;;;220270;1265;25070;-54
2022/03/07 02:17:10;;;;;;;10.10;6.50;;;24.00;44.00;;;;;;220443;1268;22561;-51
2022/03/07 02:22:16;;;;;;;8.80;5.80;;;24.00;43.70;;;;;;219837;1268;22715;-51
2022/03/07 02:27:23;;;;;;;8.70;6.30;;;24.10;43.60;;;;;;220401;1267;22526;-54
2022/03/07 02:32:27;;;;;;;10.10;6.00;;;24.00;43.60;;;;;;220091;1267;22602;-55
2022/03/07 02:37:33;;;;;;;8.70;5.90;;;24.10;43.80;;;;;;220859;1267;25320;-55
2022/03/07 02:42:38;;;;;;;9.50;6.30;;;24.10;43.90;;;;;;220245;1267;24422;-53
2022/03/07 02:47:42;;;;;;;8.20;5.50;;;24.20;43.80;;;;;;220595;1267;23820;-52
2022/03/07 02:52:45;;;;;;;8.20;5.70;;;24.20;43.60;;;;;;220240;1267;22561;-54
2022/03/07 02:57:53;;;;;;;9.60;5.80;;;24.30;43.40;;;;;;220313;1266;25345;-53
2022/03/07 03:02:58;;;;;;;9.00;5.60;;;24.20;43.80;;;;;;220384;1265;23076;-53
2022/03/07 03:08:02;;;;;;;8.50;5.80;;;24.30;43.30;;;;;;220184;1268;22548;-53
2022/03/07 03:13:05;;;;;;;8.70;5.20;;;24.30;43.30;;;;;;220599;1265;22528;-50
2022/03/07 03:18:09;;;;;;;9.30;5.90;;;24.20;43.40;;;;;;220336;1265;25461;-53
2022/03/07 03:23:13;;;;;;;9.10;5.70;;;24.10;43.90;;;;;;220483;1265;22714;-56
2022/03/07 03:28:17;;;;;;;8.50;5.70;;;23.90;43.60;;;;;;220491;1267;26713;-52
2022/03/07 03:33:21;;;;;;;7.40;5.10;;;23.80;43.90;;;;;;220171;1265;22534;-53
2022/03/07 03:38:25;;;;;;;9.20;6.00;;;23.70;44.00;;;;;;220637;1264;22900;-51
2022/03/07 03:43:29;;;;;;;8.10;5.60;;;23.60;44.30;;;;;;220489;1265;25320;-51
2022/03/07 03:48:35;;;;;;;8.70;5.70;;;23.50;44.50;;;;;;220258;1265;24292;-55
2022/03/07 03:53:39;;;;;;;7.50;5.50;;;23.30;44.60;;;;;;220075;1265;26013;-54
2022/03/07 03:58:42;;;;;;;6.60;5.10;;;23.20;44.80;;;;;;220886;1265;25555;-52
2022/03/07 04:03:46;;;;;;;8.80;5.60;;;23.10;44.90;;;;;;220211;1265;22521;-51
2022/03/07 04:09:01;;;;;;;8.30;5.70;;;23.00;45.00;;;;;;220247;1267;22585;-54
2022/03/07 04:14:11;;;;;;;;;;;22.90;45.20;;;;;;220490;1265;22678;-51
2022/03/07 04:19:28;;;;;;;7.80;5.00;;;22.80;45.60;;;;;;220382;1265;24315;-54
2022/03/07 04:24:35;;;;;;;8.80;5.50;;;22.70;45.30;;;;;;220801;1264;22650;-52
2022/03/07 04:29:40;;;;;;;8.30;5.30;;;22.60;45.40;;;;;;220472;1265;22688;-53
2022/03/07 04:34:44;;;;;;;10.50;5.80;;;22.60;45.60;;;;;;220416;1264;25547;-54
2022/03/07 04:39:50;;;;;;;9.80;5.40;;;22.50;46.00;;;;;;220195;1267;24305;-54
2022/03/07 04:44:58;;;;;;;7.50;5.30;;;22.50;46.30;;;;;;220421;1265;26478;-51
2022/03/07 04:50:02;;;;;;;10.80;5.90;;;22.40;46.70;;;;;;220289;1268;23785;-53
2022/03/07 04:55:07;;;;;;;10.50;5.50;;;22.70;46.20;;;;;;220621;1265;22564;-55
2022/03/07 05:00:12;;;;;;;10.00;4.80;;;23.00;45.40;;;;;;220924;1264;22534;-54
2022/03/07 05:05:18;;;;;;;7.40;5.00;;;23.30;44.90;;;;;;220710;1264;22546;-54
2022/03/07 05:10:22;;;;;;;7.00;4.60;;;23.40;44.60;;;;;;220300;1265;22718;-56
2022/03/07 05:15:32;;;;;;;7.50;5.10;;;23.60;44.40;;;;;;220501;1264;25362;-55
2022/03/07 05:20:36;;;;;;;7.60;4.70;;;23.60;44.60;;;;;;220219;1264;24222;-55
2022/03/07 05:25:59;;;;;;;7.20;4.60;;;23.70;44.20;;;;;;220186;1265;25366;-55
2022/03/07 05:31:03;;;;;;;10.10;5.20;;;23.80;44.20;;;;;;220362;1267;22618;-53
2022/03/07 05:36:07;;;;;;;7.90;4.90;;;23.80;43.80;;;;;;220401;1265;22555;-52
2022/03/07 05:41:10;;;;;;;6.80;4.70;;;23.80;43.70;;;;;;220708;1267;25253;-55
2022/03/07 05:46:18;;;;;;;7.50;4.80;;;23.80;43.60;;;;;;220318;1265;22544;-55
2022/03/07 05:51:30;;;;;;;;;;;23.80;43.60;;;;;;220050;1267;25222;-53
2022/03/07 05:56:34;;;;;;;9.20;4.70;;;23.90;43.40;;;;;;220317;1267;25519;-53
2022/03/07 06:01:38;;;;;;;8.70;5.30;;;23.90;43.80;;;;;;220429;1265;25263;-52
2022/03/07 06:06:42;;;;;;;7.60;4.60;;;23.90;43.40;;;;;;220375;1265;22563;-52
2022/03/07 06:11:46;;;;;;;7.10;4.50;;;23.90;43.40;;;;;;220266;1264;22524;-54
2022/03/07 06:16:50;;;;;;;7.30;5.00;;;23.90;43.40;;;;;;220381;1265;22536;-55
2022/03/07 06:21:54;;;;;;;6.70;4.50;;;23.90;43.40;;;;;;220097;1265;25567;-53
2022/03/07 06:26:58;;;;;;;7.60;4.50;;;23.90;43.40;;;;;;220460;1267;22567;-55
2022/03/07 06:32:02;;;;;;;6.20;4.30;;;24.00;43.40;;;;;;220893;1264;25248;-54
2022/03/07 06:37:06;;;;;;;6.70;4.30;;;24.00;43.50;;;;;;220770;1264;25667;-53
2022/03/07 06:42:10;;;;;;;7.30;4.60;;;24.00;43.40;;;;;;220131;1265;22545;-54
2022/03/07 06:47:13;;;;;;;6.40;4.20;;;24.00;43.40;;;;;;220654;1264;22534;-55
2022/03/07 06:52:17;;;;;;;5.80;4.00;;;24.10;42.60;;;;;;220403;1267;22553;-51
2022/03/07 06:57:21;;;;;;;7.10;3.90;;;24.10;43.10;;;;;;220335;1264;25373;-49
2022/03/07 07:02:28;;;;;;;6.30;4.20;;;24.30;43.00;;;;;;220414;1265;22527;-54
2022/03/07 07:07:32;;;;;;;6.70;4.00;;;24.30;42.90;;;;;;220210;1265;25388;-54
2022/03/07 07:12:36;;;;;;;5.60;4.30;;;24.30;43.20;;;;;;220423;1265;22526;-55
2022/03/07 07:17:40;;;;;;;7.20;4.40;;;24.30;42.80;;;;;;220183;1264;22519;-53
2022/03/07 07:22:44;;;;;;;5.80;3.70;;;24.30;43.30;;;;;;219860;1267;25407;-52
2022/03/07 07:27:47;;;;;;;6.70;4.30;;;24.10;43.50;;;;;;219961;1265;22541;-55
2022/03/07 07:32:51;;;;;;;5.60;3.90;;;24.00;43.40;;;;;;219999;1265;22538;-55
2022/03/07 07:37:55;;;;;;;7.20;3.70;;;23.90;43.60;;;;;;220248;1267;22762;-53
2022/03/07 07:42:58;;;;;;;6.10;4.00;;;23.80;44.00;;;;;;220258;1267;25709;-54
2022/03/07 07:48:07;;;;;;;6.40;4.40;;;23.70;44.10;;;;;;220331;1267;22542;-52
2022/03/07 07:53:10;;;;;;;6.60;4.20;;;23.60;44.30;;;;;;220110;1267;26485;-55
2022/03/07 07:58:17;;;;;;;6.00;3.60;;;23.60;44.70;;;;;;220300;1264;25209;-52
2022/03/07 08:03:21;;;;;;;5.50;3.60;;;23.50;44.50;;;;;;220578;1265;22616;-53
2022/03/07 08:08:26;;;;;;;6.20;3.80;;;23.50;44.90;;;;;;219811;1265;23012;-51
2022/03/07 08:13:29;;;;;;;6.20;3.90;;;23.50;45.20;;;;;;220569;1265;24295;-51
2022/03/07 08:18:33;;;;;;;5.90;3.80;;;23.30;45.30;;;;;;220865;1267;22529;-52
2022/03/07 08:23:38;;;;;;;5.30;3.30;;;23.20;45.60;;;;;;220675;1267;25300;-53
2022/03/07 08:28:43;;;;;;;8.00;4.20;;;23.20;46.00;;;;;;220628;1267;24858;-53
2022/03/07 08:33:48;;;;;;;6.30;3.40;;;23.20;46.10;;;;;;220152;1267;22589;-54
2022/03/07 08:38:59;;;;;;;9.10;3.70;;;23.00;46.50;;;;;;220939;1267;22544;-54
2022/03/07 08:44:08;;;;;;;8.00;4.00;;;23.00;46.80;;;;;;220854;1267;22529;-51
2022/03/07 08:49:30;;;;;;;7.00;3.40;;;23.00;47.10;;;;;;220554;1264;22540;-53
2022/03/07 08:54:40;;;;;;;6.50;3.80;;;23.00;47.10;;;;;;220179;1267;22540;-54
2022/03/07 08:59:45;;;;;;;7.70;3.60;;;23.10;47.10;;;;;;220003;1267;22590;-53
2022/03/07 09:05:08;;;;;;;7.20;3.30;;;23.20;47.00;;;;;;219936;1267;24309;-54
2022/03/07 09:10:13;;;;;;;6.00;3.50;;;23.10;47.10;;;;;;220482;1267;25191;-55
2022/03/07 09:15:17;;;;;;;6.20;3.40;;;23.10;47.10;;;;;;219925;1267;24022;-54
2022/03/07 09:20:20;;;;;;;6.20;3.70;;;23.10;47.10;;;;;;219954;1265;27010;-52
2022/03/07 09:25:26;;;;;;;5.50;3.30;;;23.10;47.00;;;;;;220059;1267;27209;-54
2022/03/07 09:30:30;;;;;;;6.90;2.90;;;23.20;47.00;;;;;;220049;1267;213694;-53
2022/03/07 09:35:34;;;;;;;10.20;3.50;;;23.20;47.00;;;;;;220063;1267;22541;-52
2022/03/07 09:40:37;;;;;;;7.70;3.60;;;23.20;47.20;;;;;;219973;1267;23050;-55
2022/03/07 09:45:41;;;;;;;7.30;3.20;;;23.20;47.10;;;;;;219917;1265;22612;-56
2022/03/07 09:50:45;;;;;;;5.10;2.70;;;23.20;47.10;;;;;;220214;1264;22522;-52
2022/03/07 09:55:49;;;;;;;5.90;2.80;;;23.30;47.20;;;;;;220291;1265;24322;-51
2022/03/07 10:01:07;;;;;;;5.50;3.20;;;23.20;47.40;;;;;;220129;1267;24376;-53
2022/03/07 10:06:16;;;;;;;7.90;3.00;;;23.20;48.20;;;;;;220323;1267;22693;-52
2022/03/07 10:11:22;;;;;;;11.30;2.70;;;23.20;47.90;;;;;;220429;1266;24262;-53
2022/03/07 10:16:40;;;;;;;11.90;3.40;;;23.20;47.80;;;;;;220273;1266;25691;-53
2022/03/07 10:21:50;;;;;;;5.00;3.00;;;23.20;47.70;;;;;;220532;1266;23236;-51
2022/03/07 10:27:05;;;;;;;7.70;2.80;;;23.20;47.60;;;;;;219982;1265;22709;-53
2022/03/07 10:32:16;;;;;;;5.20;2.80;;;23.30;47.60;;;;;;220173;1264;26554;-52
2022/03/07 10:37:33;;;;;;;74.80;25.60;;;23.30;47.60;;;;;;220267;1267;22638;-50
2022/03/07 10:42:45;;;;;;;93.40;33.40;;;23.20;47.90;;;;;;220204;1265;25264;-50
2022/03/07 10:47:54;;;;;;;137.60;45.70;;;23.10;47.70;;;;;;219627;1264;26748;-54
2022/03/07 10:53:04;;;;;;;175.30;52.70;;;23.10;48.50;;;;;;219747;1264;25549;-54
2022/03/07 10:58:16;;;;;;;145.10;44.90;;;23.00;48.00;;;;;;219985;1267;25246;-55
2022/03/07 11:03:33;;;;;;;122.80;40.60;;;23.10;48.50;;;;;;220011;1267;22540;-51
2022/03/07 11:08:43;;;;;;;119.40;40.30;;;23.10;47.50;;;;;;219909;1265;26843;-52
2022/03/07 11:13:52;;;;;;;120.00;37.60;;;23.00;47.50;;;;;;219780;1267;22528;-54
2022/03/07 11:18:56;;;;;;;114.90;37.40;;;23.00;47.60;;;;;;220247;1265;22626;-54
2022/03/07 11:24:05;;;;;;;109.40;37.90;;;22.90;47.60;;;;;;220421;1264;24327;-54
2022/03/07 11:29:09;;;;;;;113.20;38.30;;;22.90;47.90;;;;;;219903;1265;24352;-53
2022/03/07 11:34:13;;;;;;;100.20;34.20;;;22.90;47.70;;;;;;219866;1267;22588;-55
2022/03/07 11:39:29;;;;;;;100.00;34.80;;;22.90;47.80;;;;;;220398;1264;22621;-53
2022/03/07 11:44:34;;;;;;;94.30;31.20;;;22.90;47.50;;;;;;219719;1267;22540;-53
2022/03/07 11:49:44;;;;;;;88.20;30.80;;;22.80;47.50;;;;;;219570;1265;22608;-53
2022/03/07 11:54:55;;;;;;;83.40;29.30;;;22.90;47.70;;;;;;219782;1264;24324;-53
2022/03/07 12:00:21;;;;;;;83.10;30.20;;;22.90;47.70;;;;;;219893;1264;25341;-52
2022/03/07 12:05:32;;;;;;;77.10;30.30;;;22.90;47.10;;;;;;219951;1265;22565;-55
2022/03/07 12:10:36;;;;;;;;;;;22.90;47.20;;;;;;219843;1267;24290;-55
2022/03/07 12:15:53;;;;;;;76.10;27.30;;;22.90;47.10;;;;;;220030;1265;25174;-56
2022/03/07 12:21:03;;;;;;;75.20;25.70;;;22.80;47.10;;;;;;220339;1264;22546;-53
2022/03/07 12:26:14;;;;;;;74.60;24.30;;;22.80;47.10;;;;;;219606;1265;25519;-55
2022/03/07 12:31:19;;;;;;;67.60;23.30;;;22.80;47.00;;;;;;219788;1265;25366;-56
2022/03/07 12:36:25;;;;;;;68.80;23.60;;;22.90;47.20;;;;;;219823;1265;22554;-53
2022/03/07 12:41:32;;;;;;;56.70;22.50;;;22.80;46.70;;;;;;219893;1267;24315;-56
2022/03/07 12:46:36;;;;;;;60.70;22.90;;;22.90;46.50;;;;;;220126;1267;22550;-55
2022/03/07 12:51:39;;;;;;;62.60;22.60;;;22.90;46.30;;;;;;220287;1267;25308;-57
2022/03/07 12:56:44;;;;;;;49.10;20.50;;;23.00;46.20;;;;;;220410;1267;24682;-54
2022/03/07 13:01:51;;;;;;;51.60;20.40;;;23.00;45.90;;;;;;220914;1267;25355;-55
2022/03/07 13:06:56;;;;;;;50.80;19.50;;;23.00;45.70;;;;;;219989;1266;22546;-56
2022/03/07 13:12:06;;;;;;;48.60;19.50;;;23.10;45.70;;;;;;219806;1267;24293;-55
2022/03/07 13:17:13;;;;;;;58.00;20.30;;;23.00;45.70;;;;;;220194;1265;27377;-58
2022/03/07 13:22:18;;;;;;;46.70;19.10;;;23.00;45.80;;;;;;220183;1267;22547;-56
2022/03/07 13:27:24;;;;;;;50.10;19.20;;;23.00;45.60;;;;;;220741;1265;25458;-55
2022/03/07 13:32:33;;;;;;;46.40;19.20;;;22.90;45.50;;;;;;219639;1267;25577;-55
2022/03/07 13:37:42;;;;;;;46.70;18.10;;;22.90;45.60;;;;;;220133;1267;23858;-53
2022/03/07 13:42:52;;;;;;;35.10;16.90;;;22.90;45.60;;;;;;219453;1267;25626;-56
2022/03/07 13:48:01;;;;;;;33.50;16.30;;;22.90;45.60;;;;;;219499;1267;22538;-59
2022/03/07 13:53:07;;;;;;;39.20;17.60;;;22.80;45.30;;;;;;219701;1267;25435;-57
2022/03/07 13:58:16;;;;;;;36.20;15.80;;;22.80;45.20;;;;;;220387;1267;25350;-57
2022/03/07 14:03:20;;;;;;;36.80;15.80;;;22.80;44.90;;;;;;228048;1266;22342;-58
2022/03/07 14:08:39;;;;;;;35.90;16.00;;;22.90;45.20;;;;;;228132;1267;22489;-59
2022/03/07 14:13:45;;;;;;;29.10;13.90;;;22.80;45.30;;;;;;221895;1266;23065;-59
2022/03/07 14:18:51;;;;;;;33.80;14.70;;;22.70;44.90;;;;;;227992;1267;22486;-60
2022/03/07 14:23:55;;;;;;;34.80;15.90;;;22.90;45.00;;;;;;228055;1265;23149;-59
2022/03/07 14:29:03;;;;;;;33.70;15.20;;;23.10;44.70;;;;;;227999;1264;22963;-58
2022/03/07 14:34:09;;;;;;;32.90;13.80;;;23.40;43.90;;;;;;228222;1266;22134;-58
2022/03/07 14:39:12;;;;;;;31.00;14.40;;;23.50;43.50;;;;;;227491;1267;22564;-55
2022/03/07 14:44:16;;;;;;;32.20;14.30;;;23.70;43.30;;;;;;220649;1267;22665;-58
2022/03/07 14:49:20;;;;;;;23.90;12.50;;;23.70;43.10;;;;;;220800;1267;23349;-58
2022/03/07 14:54:27;;;;;;;27.50;13.30;;;23.80;43.20;;;;;;220370;1267;25549;-58
2022/03/07 14:59:32;;;;;;;27.00;11.90;;;23.80;43.10;;;;;;220096;1265;22576;-58
2022/03/07 15:04:36;;;;;;;26.70;12.10;;;23.80;42.80;;;;;;220224;1267;25258;-59
2022/03/07 15:09:45;;;;;;;30.20;13.10;;;23.80;42.70;;;;;;220059;1267;22643;-60
2022/03/07 15:14:52;;;;;;;28.40;12.90;;;23.90;42.50;;;;;;219898;1267;22541;-58
2022/03/07 15:19:57;;;;;;;27.30;12.60;;;23.90;42.60;;;;;;219773;1265;22642;-57
2022/03/07 15:25:01;;;;;;;27.10;12.60;;;23.80;42.70;;;;;;220085;1265;22531;-59
2022/03/07 15:30:06;;;;;;;25.40;10.90;;;23.90;42.90;;;;;;219919;1267;25682;-56
2022/03/07 15:35:10;;;;;;;26.50;11.00;;;23.90;42.70;;;;;;219820;1267;22538;-57
2022/03/07 15:40:16;;;;;;;23.10;10.30;;;23.90;42.70;;;;;;220221;1267;24230;-56
2022/03/07 15:45:20;;;;;;;26.80;11.00;;;24.00;42.80;;;;;;220347;1267;22537;-56
2022/03/07 15:50:23;;;;;;;26.80;11.60;;;23.90;42.60;;;;;;219996;1267;25339;-54
2022/03/07 15:55:28;;;;;;;23.00;9.90;;;23.90;42.90;;;;;;219812;1267;25629;-56
2022/03/07 16:00:31;;;;;;;23.90;11.20;;;23.90;42.50;;;;;;220312;1267;23005;-56
2022/03/07 16:05:35;;;;;;;23.60;10.40;;;23.90;42.70;;;;;;219591;1267;25257;-58
2022/03/07 16:10:42;;;;;;;22.10;9.40;;;23.90;42.50;;;;;;219530;1267;22540;-57
2022/03/07 16:15:46;;;;;;;29.20;10.00;;;23.90;42.50;;;;;;220600;1264;22734;-59
2022/03/07 16:25:27;;;;;;;19.80;10.70;;;24.10;42.00;;;;;;212732;1305;542954;-56
2022/03/07 16:34:34;;;;;;;19.20;10.70;;;24.10;42.40;;;;;;213354;1300;543087;-59
2022/03/07 16:39:47;;;;;;;22.40;11.00;;;24.20;42.80;;;;;;218227;1280;24604;-58
2022/03/07 16:44:55;;;;;;;20.20;10.20;;;24.30;43.10;;;;;;218249;1277;318159;-58
2022/03/07 16:49:59;;;;;;;20.30;10.80;;;24.20;43.80;;;;;;218637;1277;25327;-57
2022/03/07 16:55:12;;;;;;;18.60;10.60;;;24.00;44.30;;;;;;218459;1277;25649;-59
2022/03/07 17:00:40;;;;;;;22.80;10.70;;;23.90;44.50;;;;;;218525;1276;24246;-56
2022/03/07 17:05:47;;;;;;;19.40;10.40;;;23.90;44.40;;;;;;219004;1274;22692;-55
2022/03/07 17:10:55;;;;;;;20.60;11.30;;;23.80;45.10;;;;;;218861;1274;25360;-59
2022/03/07 17:16:00;;;;;;;22.30;11.00;;;23.70;46.40;;;;;;218986;1275;22696;-57
2022/03/07 17:21:05;;;;;;;22.10;10.70;;;23.70;47.40;;;;;;218980;1274;22580;-56
2022/03/07 17:26:13;;;;;;;21.40;11.00;;;23.70;47.40;;;;;;218893;1274;22711;-58
2022/03/07 17:31:20;;;;;;;18.80;9.80;;;23.60;47.60;;;;;;219103;1274;24389;-57
2022/03/07 17:36:24;;;;;;;15.70;9.80;;;23.50;47.20;;;;;;219201;1274;24328;-56
2022/03/07 17:41:28;;;;;;;18.50;10.60;;;23.50;47.20;;;;;;218866;1274;26661;-57
2022/03/07 17:46:32;;;;;;;16.60;9.40;;;23.40;47.10;;;;;;218988;1274;22622;-59
2022/03/07 17:51:39;;;;;;;15.30;8.70;;;23.30;47.00;;;;;;218798;1274;22607;-57
2022/03/07 17:56:43;;;;;;;18.50;10.00;;;23.20;47.00;;;;;;219393;1270;22564;-57
2022/03/07 18:01:49;;;;;;;16.40;9.00;;;23.20;47.10;;;;;;219201;1271;22525;-57
2022/03/07 18:06:58;;;;;;;16.80;9.40;;;23.10;46.90;;;;;;219192;1271;22674;-58
2022/03/07 18:12:03;;;;;;;17.90;8.60;;;23.00;47.00;;;;;;219090;1270;24330;-59
2022/03/07 18:17:09;;;;;;;20.60;9.50;;;23.00;47.50;;;;;;219770;1270;24337;-58
2022/03/07 18:22:13;;;;;;;19.60;9.40;;;22.90;47.40;;;;;;219549;1270;28145;-58
2022/03/07 18:27:17;;;;;;;14.10;8.70;;;22.90;47.30;;;;;;219651;1270;22762;-55
2022/03/07 18:32:21;;;;;;;17.50;9.30;;;22.80;47.40;;;;;;220124;1270;22875;-63
2022/03/07 18:37:25;;;;;;;16.80;9.30;;;22.80;47.50;;;;;;219993;1270;25538;-60
2022/03/07 18:42:37;;;;;;;13.80;9.70;;;22.80;47.20;;;;;;219892;1270;22746;-58
2022/03/07 18:47:46;;;;;;;19.20;10.30;;;22.70;47.30;;;;;;220298;1271;26327;-58
2022/03/07 18:52:53;;;;;;;20.40;10.00;;;22.70;47.30;;;;;;219890;1270;22660;-59
2022/03/07 18:58:24;;;;;;;21.40;9.70;;;22.80;46.60;;;;;;219717;1270;22551;-59
2022/03/07 19:03:32;;;;;;;21.60;9.80;;;22.70;46.50;;;;;;220026;1270;25423;-59
2022/03/07 19:08:37;;;;;;;19.60;10.40;;;22.70;46.80;;;;;;219275;1271;26550;-59
2022/03/07 19:13:46;;;;;;;21.00;10.50;;;22.50;47.10;;;;;;219900;1270;26143;-59
2022/03/07 19:18:49;;;;;;;18.30;10.70;;;22.60;46.60;;;;;;219277;1270;25300;-59
2022/03/07 19:23:53;;;;;;;17.70;11.20;;;22.50;46.90;;;;;;219788;1270;25415;-60
2022/03/07 19:28:59;;;;;;;23.40;11.30;;;22.50;46.00;;;;;;219766;1271;22536;-59
2022/03/07 19:34:06;;;;;;;23.10;11.40;;;22.50;46.90;;;;;;220029;1270;22560;-54
2022/03/07 19:39:09;;;;;;;18.30;11.80;;;22.40;47.10;;;;;;220099;1271;22691;-56
2022/03/07 19:44:15;;;;;;;21.80;11.90;;;22.30;47.20;;;;;;219922;1270;23024;-56
2022/03/07 19:49:24;;;;;;;23.30;12.10;;;22.30;47.10;;;;;;219914;1271;24228;-54
2022/03/07 19:54:31;;;;;;;20.00;11.60;;;22.20;47.20;;;;;;219968;1271;25508;-55
2022/03/07 19:59:44;;;;;;;23.90;12.20;;;22.20;47.20;;;;;;220031;1271;24230;-56
2022/03/07 20:04:51;;;;;;;23.40;11.60;;;22.20;47.30;;;;;;219804;1270;24242;-56
2022/03/07 20:09:58;;;;;;;23.00;12.70;;;22.10;47.20;;;;;;219943;1271;28191;-57
2022/03/07 20:15:09;;;;;;;43.60;20.00;;;22.20;46.20;;;;;;219930;1270;24414;-55
2022/03/07 20:20:15;;;;;;;91.90;35.20;;;22.20;46.90;;;;;;219731;1271;22588;-57
2022/03/07 20:25:19;;;;;;;123.40;43.90;;;22.10;47.20;;;;;;219733;1271;24234;-57
2022/03/07 20:30:24;;;;;;;121.50;42.50;;;22.10;46.90;;;;;;220005;1270;23140;-53
2022/03/07 20:35:28;;;;;;;129.10;44.90;;;22.10;47.00;;;;;;220141;1271;22537;-57
2022/03/07 20:40:34;;;;;;;126.30;44.10;;;22.10;47.30;;;;;;219833;1270;22586;-52
2022/03/07 20:45:39;;;;;;;110.40;42.00;;;22.10;46.80;;;;;;219557;1270;25362;-51
2022/03/07 20:50:53;;;;;;;129.90;45.30;;;22.00;46.50;;;;;;219518;1271;25251;-51
2022/03/07 20:55:59;;;;;;;117.60;44.50;;;21.90;46.90;;;;;;219877;1271;22551;-57
2022/03/07 21:01:09;;;;;;;104.60;41.00;;;22.00;46.50;;;;;;220004;1271;22547;-51
2022/03/07 21:06:14;;;;;;;110.40;42.00;;;22.10;46.30;;;;;;219635;1270;24320;-55
2022/03/07 21:11:18;;;;;;;111.40;41.90;;;22.40;46.10;;;;;;220500;1270;25229;-55
2022/03/07 21:16:22;;;;;;;103.70;40.50;;;22.90;46.80;;;;;;219668;1271;22544;-56
2022/03/07 21:21:33;;;;;;;96.30;40.80;;;23.10;45.70;;;;;;219739;1271;22569;-56
2022/03/07 21:26:37;;;;;;;90.20;38.80;;;23.30;45.70;;;;;;219927;1270;24199;-54
2022/03/07 21:31:41;;;;;;;89.50;37.30;;;23.50;46.60;;;;;;219888;1271;23062;-55
2022/03/07 21:36:47;;;;;;;88.80;37.60;;;23.60;46.40;;;;;;219903;1270;25419;-55
2022/03/07 21:41:51;;;;;;;85.60;38.30;;;23.60;46.80;;;;;;222703;1269;22560;-55
2022/03/07 21:46:55;;;;;;;77.00;34.20;;;23.60;47.20;;;;;;219438;1271;23687;-55
2022/03/07 21:52:07;;;;;;;82.90;34.20;;;23.70;46.70;;;;;;220133;1270;22735;-56
2022/03/07 21:57:12;;;;;;;80.40;34.20;;;23.90;47.00;;;;;;219853;1271;24241;-55
2022/03/07 22:02:15;;;;;;;73.60;33.20;;;23.90;47.00;;;;;;219644;1270;23897;-51
2022/03/07 22:07:20;;;;;;;71.90;32.90;;;23.80;47.60;;;;;;220273;1271;22541;-51
2022/03/07 22:12:25;;;;;;;72.70;33.00;;;23.90;47.50;;;;;;219904;1271;24430;-55
2022/03/07 22:17:28;;;;;;;71.70;31.40;;;24.00;48.30;;;;;;219775;1269;22549;-56
2022/03/07 22:22:32;;;;;;;72.40;32.40;;;24.10;48.00;;;;;;219899;1271;22546;-56
2022/03/07 22:27:36;;;;;;;60.60;30.90;;;24.10;48.10;;;;;;219628;1271;22911;-56
2022/03/07 22:32:41;;;;;;;66.70;32.40;;;24.20;48.10;;;;;;219893;1270;22742;-55
2022/03/07 22:37:46;;;;;;;63.10;30.20;;;24.20;48.20;;;;;;219655;1271;22639;-55
2022/03/07 22:42:50;;;;;;;61.10;30.50;;;24.30;48.50;;;;;;219636;1271;22604;-55
2022/03/07 22:47:54;;;;;;;60.80;27.50;;;24.30;48.50;;;;;;220198;1270;24741;-55
2022/03/07 22:52:58;;;;;;;62.50;29.90;;;24.40;48.20;;;;;;219777;1272;22564;-54
2022/03/07 22:58:03;;;;;;;74.40;31.40;;;24.50;48.30;;;;;;219977;1271;25276;-55
2022/03/07 23:03:12;;;;;;;63.30;29.30;;;24.50;49.10;;;;;;219755;1270;22515;-53
2022/03/07 23:08:26;;;;;;;60.40;28.20;;;24.60;49.70;;;;;;219700;1271;24283;-56
2022/03/07 23:13:29;;;;;;;62.60;28.30;;;24.50;50.30;;;;;;219739;1272;22980;-54
2022/03/07 23:18:37;;;;;;;60.20;28.30;;;24.40;50.80;;;;;;219809;1271;23158;-55
2022/03/07 23:23:58;;;;;;;53.60;28.20;;;24.40;52.60;;;;;;219960;1267;25586;-55
2022/03/07 23:29:10;;;;;;;56.90;28.30;;;24.30;53.70;;;;;;219843;1267;22593;-55
2022/03/07 23:34:22;;;;;;;56.00;28.00;;;24.10;53.80;;;;;;219749;1267;23645;-57
2022/03/07 23:39:26;;;;;;;52.70;26.80;;;23.90;54.00;;;;;;219820;1267;22542;-54
2022/03/07 23:44:30;;;;;;;48.40;26.20;;;23.90;54.20;;;;;;219687;1268;22551;-55
2022/03/07 23:49:33;;;;;;;49.40;24.50;;;23.70;54.50;;;;;;219747;1267;24288;-55
2022/03/07 23:54:37;;;;;;;49.10;25.70;;;23.70;55.10;;;;;;219614;1268;22617;-54
2022/03/07 23:59:41;;;;;;;52.80;26.70;;;23.40;54.90;;;;;;219850;1267;23359;-53
